Svitzer Leixoes — CSXW6 — position and weather

sailwx.info

Track history (hours):
 
Tides and Currents Weather Stations Pressure Air Temp Water Temp Dewpoint Dewpoint Depression Visibility Wind Speed Wind Dir Waves Ship Positions

Svitzer Leixoes

Last reported at 2015-Jul-05 22:33 UTC. Time now 2015-Jul-05 23:18 UTC.
Position N 38°42' W 009°10'.

Length 28 m; draft 3.9 m.

Type: Towing. MMSI: 263622000.

Date/timePositionNaut miles runAvg speedWind from/ knotsBaromVisibWave heightAir tempDewpointWater temp
2015-Jul-05 22:33N 38°42' W 009°10'9 8.8
2015-Jul-05 21:33N 38°39' W 009°20'1 0.8
2015-Jul-05 20:32N 38°39' W 009°20'6 6.3
2015-Jul-05 19:33N 38°41' W 009°12'5 4.8
2015-Jul-05 18:33N 38°43' W 009°07'2 2.2
2015-Jul-05 17:33N 38°45' W 009°05'0 0.1
2015-Jul-05 16:33N 38°45' W 009°06'2 1.8
2015-Jul-05 15:33N 38°43' W 009°06'2 1.7
2015-Jul-05 14:33N 38°42' W 009°08'1 1.2
2015-Jul-05 13:33N 38°42' W 009°10'0 0.0
2015-Jul-05 12:33N 38°42' W 009°10'0 0.0
2015-Jul-05 11:33N 38°42' W 009°10'0 0.0
2015-Jul-05 10:30N 38°42' W 009°10'0 0.0
2015-Jul-05 09:33N 38°42' W 009°10'0 0.0
2015-Jul-05 08:33N 38°42' W 009°10'0 0.0
2015-Jul-05 07:33N 38°42' W 009°10'0 0.0
2015-Jul-05 06:30N 38°42' W 009°10'0 0.0
2015-Jul-05 05:32N 38°42' W 009°10'0 0.0
2015-Jul-05 04:31N 38°42' W 009°10'0 0.0
2015-Jul-05 03:33N 38°42' W 009°10'0 0.0
2015-Jul-05 02:32N 38°42' W 009°10'0 0.0
2015-Jul-05 01:33N 38°42' W 009°10'0 0.0
2015-Jul-05 00:27N 38°42' W 009°10'0 0.0
2015-Jul-04 23:31N 38°42' W 009°10'0 0.0
2015-Jul-04 22:33N 38°42' W 009°10'0 0.0
2015-Jul-04 21:33N 38°42' W 009°10'0 0.0
2015-Jul-04 20:33N 38°42' W 009°10'0 0.0
2015-Jul-04 19:33N 38°42' W 009°10'0 0.0
2015-Jul-04 18:31N 38°42' W 009°10'0 0.0
2015-Jul-04 17:33N 38°42' W 009°10'2 2.1
2015-Jul-04 16:33N 38°41' W 009°12'2 2.2
2015-Jul-04 15:33N 38°42' W 009°09'0 0.1
2015-Jul-04 14:32N 38°42' W 009°10'0 0.0
2015-Jul-04 13:33N 38°42' W 009°10'0 0.0
2015-Jul-04 12:33N 38°42' W 009°10'0 0.0
2015-Jul-04 11:32N 38°42' W 009°10'0 0.0
2015-Jul-04 10:33N 38°42' W 009°10'0 0.0
2015-Jul-04 09:31N 38°42' W 009°10'0 0.0
2015-Jul-04 08:33N 38°42' W 009°10'1 1.4
2015-Jul-04 07:33N 38°41' W 009°11'1 1.0
2015-Jul-04 06:33N 38°42' W 009°10'0 0.2
2015-Jul-04 05:33N 38°42' W 009°10'0 0.4
2015-Jul-04 04:33N 38°42' W 009°10'0 0.0
2015-Jul-04 03:33N 38°42' W 009°10'0 0.0
2015-Jul-04 02:31N 38°42' W 009°10'0 0.0
2015-Jul-04 01:30N 38°42' W 009°10'0 0.0
2015-Jul-04 00:29N 38°42' W 009°10'0 0.0
2015-Jul-03 23:33N 38°42' W 009°10'0 0.0
2015-Jul-03 22:33N 38°42' W 009°10'0 0.0
2015-Jul-03 21:33N 38°42' W 009°10'0 0.0
2015-Jul-03 20:33N 38°42' W 009°10'0 0.0
2015-Jul-03 19:33N 38°42' W 009°10'0 0.0
2015-Jul-03 18:33N 38°42' W 009°10'0 0.0
2015-Jul-03 17:33N 38°42' W 009°10'0 0.0
2015-Jul-03 16:33N 38°42' W 009°10'0 0.0
2015-Jul-03 15:33N 38°42' W 009°10'0 0.2
2015-Jul-03 14:33N 38°42' W 009°10'0 0.1
2015-Jul-03 13:33N 38°42' W 009°10'0 0.3
2015-Jul-03 12:31N 38°42' W 009°10'0 0.0
2015-Jul-03 11:33N 38°42' W 009°10'0 0.0
2015-Jul-03 10:33N 38°42' W 009°10'0 0.0
2015-Jul-03 09:33N 38°42' W 009°10'0 0.0
2015-Jul-03 08:33N 38°42' W 009°10'0 0.0
2015-Jul-03 07:33N 38°42' W 009°10'0 0.0
2015-Jul-03 06:31N 38°42' W 009°10'0 0.0
2015-Jul-03 05:33N 38°42' W 009°10'0 0.0
2015-Jul-03 04:31N 38°42' W 009°10'0 0.0
2015-Jul-03 03:33N 38°42' W 009°10'0 0.0
2015-Jul-03 02:33N 38°42' W 009°10'0 0.0
2015-Jul-03 01:31N 38°42' W 009°10'0 0.0
2015-Jul-03 00:33N 38°42' W 009°10'0 0.0
2015-Jul-02 23:30N 38°42' W 009°10'0 0.0
2015-Jul-02 22:33N 38°42' W 009°10'0 0.0
2015-Jul-02 21:33N 38°42' W 009°10'0 0.0
2015-Jul-02 20:33N 38°42' W 009°10'0 0.0
2015-Jul-02 19:31N 38°42' W 009°10'1 1.2
2015-Jul-02 18:33N 38°42' W 009°08'1 1.1
2015-Jul-02 17:32N 38°42' W 009°10'0 0.0
2015-Jul-02 16:32N 38°42' W 009°10'0 0.0
2015-Jul-02 15:31N 38°42' W 009°10'0 0.0
2015-Jul-02 14:26N 38°42' W 009°10'0 0.0
2015-Jul-02 13:30N 38°42' W 009°10'0 0.0
2015-Jul-02 12:30N 38°42' W 009°10'0 0.0
2015-Jul-02 11:32N 38°42' W 009°10'0 0.0
2015-Jul-02 10:32N 38°42' W 009°10'1 0.6
2015-Jul-02 09:20N 38°42' W 009°11'0 0.6
2015-Jul-02 08:33N 38°41' W 009°10'1 1.0
2015-Jul-02 07:33N 38°42' W 009°09'0 0.2
2015-Jul-02 06:33N 38°42' W 009°10'0 0.0
2015-Jul-02 05:32N 38°42' W 009°10'0 0.0
2015-Jul-02 04:31N 38°42' W 009°10'0 0.0
2015-Jul-02 03:33N 38°42' W 009°10'2 1.6
2015-Jul-02 02:33N 38°41' W 009°11'2 1.6
2015-Jul-02 01:32N 38°42' W 009°10'0 0.0
2015-Jul-02 00:29N 38°42' W 009°10'0 0.0
2015-Jul-01 23:33N 38°42' W 009°10'0 0.0
2015-Jul-01 22:27N 38°42' W 009°10'0 0.0
2015-Jul-01 21:31N 38°42' W 009°10'0 0.0
2015-Jul-01 20:31N 38°42' W 009°10'0 0.0
2015-Jul-01 19:33N 38°42' W 009°10'0 0.0
2015-Jul-01 18:19N 38°42' W 009°10'2 3.1
2015-Jul-01 17:33N 38°43' W 009°07'1 1.1
2015-Jul-01 16:33N 38°42' W 009°08'1 1.4
2015-Jul-01 15:30N 38°42' W 009°10'0 0.0
2015-Jul-01 14:33N 38°42' W 009°10'0 0.0
2015-Jul-01 13:32N 38°42' W 009°10'0 0.0
2015-Jul-01 12:31N 38°42' W 009°10'0 0.0
2015-Jul-01 11:31N 38°42' W 009°10'0 0.0
2015-Jul-01 10:29N 38°42' W 009°10'0 0.0
2015-Jul-01 09:33N 38°42' W 009°10'0 0.0
2015-Jul-01 08:33N 38°42' W 009°10'0 0.0
2015-Jul-01 07:23N 38°42' W 009°10'0 0.0
2015-Jul-01 06:30N 38°42' W 009°10'0 0.0
2015-Jul-01 05:31N 38°42' W 009°10'0 0.0
2015-Jul-01 04:29N 38°42' W 009°10'0 0.0
2015-Jul-01 03:32N 38°42' W 009°10'0 0.0
2015-Jul-01 02:32N 38°42' W 009°10'0 0.0
2015-Jul-01 01:33N 38°42' W 009°10'0 0.0
2015-Jul-01 00:33N 38°42' W 009°10'0 0.0
2015-Jun-30 23:30N 38°42' W 009°10'0 0.0
2015-Jun-30 22:32N 38°42' W 009°10'0 0.1
2015-Jun-30 21:29N 38°42' W 009°09'0 0.1
2015-Jun-30 20:33N 38°42' W 009°10'0 0.0
2015-Jun-30 19:33N 38°42' W 009°10'0 0.0
2015-Jun-30 18:32N 38°42' W 009°10'0 0.0
2015-Jun-30 17:32N 38°42' W 009°10'0 0.0
2015-Jun-30 16:33N 38°42' W 009°10'2 1.5
2015-Jun-30 15:32N 38°41' W 009°11'2 1.5
2015-Jun-30 14:31N 38°42' W 009°10'0 0.0
2015-Jun-30 13:30N 38°42' W 009°10'0 0.0
2015-Jun-30 12:33N 38°42' W 009°10'0 0.0
2015-Jun-30 11:33N 38°42' W 009°10'0 0.0
2015-Jun-30 10:33N 38°42' W 009°10'1 1.1
2015-Jun-30 09:33N 38°41' W 009°09'1 0.8
2015-Jun-30 08:34N 38°41' W 009°08'2 1.7
2015-Jun-30 07:33N 38°42' W 009°10'0 0.1
2015-Jun-30 06:33N 38°42' W 009°10'0 0.0
2015-Jun-30 05:33N 38°42' W 009°10'0 0.0
2015-Jun-30 04:33N 38°42' W 009°10'0 0.0
2015-Jun-30 03:33N 38°42' W 009°10'0 0.0
2015-Jun-30 02:33N 38°42' W 009°10'0 0.0
2015-Jun-30 01:33N 38°42' W 009°10'0 0.4
2015-Jun-30 00:32N 38°42' W 009°10'0 0.5
2015-Jun-29 23:33N 38°42' W 009°11'1 0.9
2015-Jun-29 22:32N 38°42' W 009°10'0 0.0
2015-Jun-29 21:33N 38°42' W 009°10'1 1.3
2015-Jun-29 20:32N 38°42' W 009°11'1 1.4
2015-Jun-29 19:31N 38°42' W 009°10'0 0.0
2015-Jun-29 18:33N 38°42' W 009°10'0 0.0
2015-Jun-29 17:32N 38°42' W 009°10'0 0.0
2015-Jun-29 16:33N 38°42' W 009°10'0 0.0
2015-Jun-29 15:31N 38°42' W 009°10'0 0.0
2015-Jun-29 14:30N 38°42' W 009°10'0 0.0
2015-Jun-29 13:33N 38°42' W 009°10'0 0.0
2015-Jun-29 12:33N 38°42' W 009°10'0 0.0
2015-Jun-29 11:33N 38°42' W 009°10'0 0.0
2015-Jun-29 10:33N 38°42' W 009°10'0 0.0
2015-Jun-29 09:33N 38°42' W 009°10'0 0.0
2015-Jun-29 08:33N 38°42' W 009°10'2 1.7
2015-Jun-29 07:33N 38°43' W 009°07'2 1.7
2015-Jun-29 06:32N 38°42' W 009°10'0 0.0
2015-Jun-29 05:32N 38°42' W 009°10'0 0.0
2015-Jun-29 04:32N 38°42' W 009°10'0 0.0
2015-Jun-29 03:33N 38°42' W 009°10'0 0.0
2015-Jun-29 02:33N 38°42' W 009°10'0 0.0
2015-Jun-29 01:33N 38°42' W 009°10'0 0.0
2015-Jun-29 00:33N 38°42' W 009°10'0 0.0
2015-Jun-28 23:33N 38°42' W 009°10'0 0.0
2015-Jun-28 22:33N 38°42' W 009°10'0 0.0
2015-Jun-28 21:33N 38°42' W 009°10'0 0.0
2015-Jun-28 20:33N 38°42' W 009°10'0 0.0
2015-Jun-28 19:32N 38°42' W 009°10'0 0.3
2015-Jun-28 18:33N 38°42' W 009°10'0 0.2
2015-Jun-28 17:33N 38°42' W 009°10'1 0.7
2015-Jun-28 16:33N 38°42' W 009°09'1 0.7
2015-Jun-28 15:33N 38°42' W 009°10'0 0.0
2015-Jun-28 14:33N 38°42' W 009°10'0 0.0
2015-Jun-28 13:33N 38°42' W 009°10'0 0.0
2015-Jun-28 12:33N 38°42' W 009°10'3 2.8
2015-Jun-28 11:33N 38°43' W 009°06'1 1.5
2015-Jun-28 10:33N 38°42' W 009°08'1 1.3
2015-Jun-28 09:25N 38°42' W 009°10'1 1.0
2015-Jun-28 08:33N 38°42' W 009°09'1 0.8
2015-Jun-28 07:31N 38°42' W 009°10'0 0.0
2015-Jun-28 06:33N 38°42' W 009°10'0 0.0
2015-Jun-28 05:31N 38°42' W 009°10'0 0.0
2015-Jun-28 04:32N 38°42' W 009°10'0 0.0
2015-Jun-28 03:31N 38°42' W 009°10'0 0.0
2015-Jun-28 02:30N 38°42' W 009°10'0 0.0
2015-Jun-28 01:28N 38°42' W 009°10'0 0.0
2015-Jun-28 00:33N 38°42' W 009°10'0 0.0
2015-Jun-27 23:31N 38°42' W 009°10'0 0.0
2015-Jun-27 22:32N 38°42' W 009°10'0 0.0
2015-Jun-27 21:31N 38°42' W 009°10'0 0.0
2015-Jun-27 20:31N 38°42' W 009°10'0 0.0
2015-Jun-27 19:33N 38°42' W 009°10'0 0.0
2015-Jun-27 18:33N 38°42' W 009°10'0 0.0
2015-Jun-27 17:33N 38°42' W 009°10'0 0.0
2015-Jun-27 16:33N 38°42' W 009°10'0 0.0
2015-Jun-27 15:33N 38°42' W 009°10'0 0.0
2015-Jun-27 14:31N 38°42' W 009°10'0 0.0
2015-Jun-27 13:33N 38°42' W 009°10'0 0.0
2015-Jun-27 12:32N 38°42' W 009°10'0 0.0
2015-Jun-27 11:33N 38°42' W 009°10'0 0.0
2015-Jun-27 10:32N 38°42' W 009°10'2 1.8
2015-Jun-27 09:33N 38°43' W 009°07'1 1.4
2015-Jun-27 08:33N 38°42' W 009°09'1 0.6
2015-Jun-27 07:33N 38°42' W 009°09'0 0.2
2015-Jun-27 06:27N 38°42' W 009°10'0 0.4
2015-Jun-27 05:33N 38°42' W 009°10'0 0.4
2015-Jun-27 04:33N 38°42' W 009°10'0 0.0
2015-Jun-27 03:33N 38°42' W 009°10'0 0.0
2015-Jun-27 02:33N 38°42' W 009°10'3 2.8
2015-Jun-27 01:33N 38°43' W 009°07'2 2.0
2015-Jun-27 00:33N 38°42' W 009°08'1 1.0
2015-Jun-26 23:33N 38°42' W 009°10'0 0.0
2015-Jun-26 22:33N 38°42' W 009°10'0 0.0
2015-Jun-26 21:33N 38°42' W 009°10'0 0.0
2015-Jun-26 20:33N 38°42' W 009°10'1 1.3
2015-Jun-26 19:33N 38°41' W 009°09'1 1.3
2015-Jun-26 18:31N 38°42' W 009°10'2 1.7
2015-Jun-26 17:33N 38°41' W 009°08'2 2.2
2015-Jun-26 16:33N 38°41' W 009°11'1 1.5
2015-Jun-26 15:33N 38°41' W 009°13'3 2.7
2015-Jun-26 14:33N 38°42' W 009°10'0 0.0
2015-Jun-26 13:32N 38°42' W 009°10'0 0.0
2015-Jun-26 12:33N 38°42' W 009°10'0 0.0
2015-Jun-26 11:33N 38°42' W 009°10'0 0.0
2015-Jun-26 10:33N 38°42' W 009°10'0 0.4
2015-Jun-26 09:33N 38°42' W 009°10'0 0.4
2015-Jun-26 08:33N 38°42' W 009°10'0 0.0
2015-Jun-26 07:33N 38°42' W 009°10'0 0.0
2015-Jun-26 06:32N 38°42' W 009°10'0 0.0
2015-Jun-26 05:33N 38°42' W 009°10'0 0.0
2015-Jun-26 04:33N 38°42' W 009°10'0 0.0
2015-Jun-26 03:33N 38°42' W 009°10'0 0.0
2015-Jun-26 02:33N 38°42' W 009°10'0 0.0
2015-Jun-26 01:33N 38°42' W 009°10'0 0.0
2015-Jun-26 00:33N 38°42' W 009°10'0 0.0
2015-Jun-25 23:33N 38°42' W 009°10'0 0.0
2015-Jun-25 22:33N 38°42' W 009°10'  
Track history (hours):
 
Tides and Currents Weather Stations Pressure Air Temp Water Temp Dewpoint Dewpoint Depression Visibility Wind Speed Wind Dir Waves Ship Positions

Svitzer Leixoes

Last reported at 2015-Jul-05 22:33 UTC. Time now 2015-Jul-05 23:18 UTC.
Position N 38°42' W 009°10'.

Length 28 m; draft 3.9 m.

Type: Towing. MMSI: 263622000.

Date/timePositionNaut miles runAvg speedWind from/ knotsBaromVisibWave heightAir tempDewpointWater temp
2015-Jul-05 22:33N 38°42' W 009°10'9 8.8
2015-Jul-05 21:33N 38°39' W 009°20'1 0.8
2015-Jul-05 20:32N 38°39' W 009°20'6 6.3
2015-Jul-05 19:33N 38°41' W 009°12'5 4.8
2015-Jul-05 18:33N 38°43' W 009°07'2 2.2
2015-Jul-05 17:33N 38°45' W 009°05'0 0.1
2015-Jul-05 16:33N 38°45' W 009°06'2 1.8
2015-Jul-05 15:33N 38°43' W 009°06'2 1.7
2015-Jul-05 14:33N 38°42' W 009°08'1 1.2
2015-Jul-05 13:33N 38°42' W 009°10'0 0.0
2015-Jul-05 12:33N 38°42' W 009°10'0 0.0
2015-Jul-05 11:33N 38°42' W 009°10'0 0.0
2015-Jul-05 10:30N 38°42' W 009°10'0 0.0
2015-Jul-05 09:33N 38°42' W 009°10'0 0.0
2015-Jul-05 08:33N 38°42' W 009°10'0 0.0
2015-Jul-05 07:33N 38°42' W 009°10'0 0.0
2015-Jul-05 06:30N 38°42' W 009°10'0 0.0
2015-Jul-05 05:32N 38°42' W 009°10'0 0.0
2015-Jul-05 04:31N 38°42' W 009°10'0 0.0
2015-Jul-05 03:33N 38°42' W 009°10'0 0.0
2015-Jul-05 02:32N 38°42' W 009°10'0 0.0
2015-Jul-05 01:33N 38°42' W 009°10'0 0.0
2015-Jul-05 00:27N 38°42' W 009°10'0 0.0
2015-Jul-04 23:31N 38°42' W 009°10'0 0.0
2015-Jul-04 22:33N 38°42' W 009°10'0 0.0
2015-Jul-04 21:33N 38°42' W 009°10'0 0.0
2015-Jul-04 20:33N 38°42' W 009°10'0 0.0
2015-Jul-04 19:33N 38°42' W 009°10'0 0.0
2015-Jul-04 18:31N 38°42' W 009°10'0 0.0
2015-Jul-04 17:33N 38°42' W 009°10'2 2.1
2015-Jul-04 16:33N 38°41' W 009°12'2 2.2
2015-Jul-04 15:33N 38°42' W 009°09'0 0.1
2015-Jul-04 14:32N 38°42' W 009°10'0 0.0
2015-Jul-04 13:33N 38°42' W 009°10'0 0.0
2015-Jul-04 12:33N 38°42' W 009°10'0 0.0
2015-Jul-04 11:32N 38°42' W 009°10'0 0.0
2015-Jul-04 10:33N 38°42' W 009°10'0 0.0
2015-Jul-04 09:31N 38°42' W 009°10'0 0.0
2015-Jul-04 08:33N 38°42' W 009°10'1 1.4
2015-Jul-04 07:33N 38°41' W 009°11'1 1.0
2015-Jul-04 06:33N 38°42' W 009°10'0 0.2
2015-Jul-04 05:33N 38°42' W 009°10'0 0.4
2015-Jul-04 04:33N 38°42' W 009°10'0 0.0
2015-Jul-04 03:33N 38°42' W 009°10'0 0.0
2015-Jul-04 02:31N 38°42' W 009°10'0 0.0
2015-Jul-04 01:30N 38°42' W 009°10'0 0.0
2015-Jul-04 00:29N 38°42' W 009°10'0 0.0
2015-Jul-03 23:33N 38°42' W 009°10'0 0.0
2015-Jul-03 22:33N 38°42' W 009°10'0 0.0
2015-Jul-03 21:33N 38°42' W 009°10'0 0.0
2015-Jul-03 20:33N 38°42' W 009°10'0 0.0
2015-Jul-03 19:33N 38°42' W 009°10'0 0.0
2015-Jul-03 18:33N 38°42' W 009°10'0 0.0
2015-Jul-03 17:33N 38°42' W 009°10'0 0.0
2015-Jul-03 16:33N 38°42' W 009°10'0 0.0
2015-Jul-03 15:33N 38°42' W 009°10'0 0.2
2015-Jul-03 14:33N 38°42' W 009°10'0 0.1
2015-Jul-03 13:33N 38°42' W 009°10'0 0.3
2015-Jul-03 12:31N 38°42' W 009°10'0 0.0
2015-Jul-03 11:33N 38°42' W 009°10'0 0.0
2015-Jul-03 10:33N 38°42' W 009°10'0 0.0
2015-Jul-03 09:33N 38°42' W 009°10'0 0.0
2015-Jul-03 08:33N 38°42' W 009°10'0 0.0
2015-Jul-03 07:33N 38°42' W 009°10'0 0.0
2015-Jul-03 06:31N 38°42' W 009°10'0 0.0
2015-Jul-03 05:33N 38°42' W 009°10'0 0.0
2015-Jul-03 04:31N 38°42' W 009°10'0 0.0
2015-Jul-03 03:33N 38°42' W 009°10'0 0.0
2015-Jul-03 02:33N 38°42' W 009°10'0 0.0
2015-Jul-03 01:31N 38°42' W 009°10'0 0.0
2015-Jul-03 00:33N 38°42' W 009°10'0 0.0
2015-Jul-02 23:30N 38°42' W 009°10'0 0.0
2015-Jul-02 22:33N 38°42' W 009°10'0 0.0
2015-Jul-02 21:33N 38°42' W 009°10'0 0.0
2015-Jul-02 20:33N 38°42' W 009°10'0 0.0
2015-Jul-02 19:31N 38°42' W 009°10'1 1.2
2015-Jul-02 18:33N 38°42' W 009°08'1 1.1
2015-Jul-02 17:32N 38°42' W 009°10'0 0.0
2015-Jul-02 16:32N 38°42' W 009°10'0 0.0
2015-Jul-02 15:31N 38°42' W 009°10'0 0.0
2015-Jul-02 14:26N 38°42' W 009°10'0 0.0
2015-Jul-02 13:30N 38°42' W 009°10'0 0.0
2015-Jul-02 12:30N 38°42' W 009°10'0 0.0
2015-Jul-02 11:32N 38°42' W 009°10'0 0.0
2015-Jul-02 10:32N 38°42' W 009°10'1 0.6
2015-Jul-02 09:20N 38°42' W 009°11'0 0.6
2015-Jul-02 08:33N 38°41' W 009°10'1 1.0
2015-Jul-02 07:33N 38°42' W 009°09'0 0.2
2015-Jul-02 06:33N 38°42' W 009°10'0 0.0
2015-Jul-02 05:32N 38°42' W 009°10'0 0.0
2015-Jul-02 04:31N 38°42' W 009°10'0 0.0
2015-Jul-02 03:33N 38°42' W 009°10'2 1.6
2015-Jul-02 02:33N 38°41' W 009°11'2 1.6
2015-Jul-02 01:32N 38°42' W 009°10'0 0.0
2015-Jul-02 00:29N 38°42' W 009°10'0 0.0
2015-Jul-01 23:33N 38°42' W 009°10'0 0.0
2015-Jul-01 22:27N 38°42' W 009°10'0 0.0
2015-Jul-01 21:31N 38°42' W 009°10'0 0.0
2015-Jul-01 20:31N 38°42' W 009°10'0 0.0
2015-Jul-01 19:33N 38°42' W 009°10'0 0.0
2015-Jul-01 18:19N 38°42' W 009°10'2 3.1
2015-Jul-01 17:33N 38°43' W 009°07'1 1.1
2015-Jul-01 16:33N 38°42' W 009°08'1 1.4
2015-Jul-01 15:30N 38°42' W 009°10'0 0.0
2015-Jul-01 14:33N 38°42' W 009°10'0 0.0
2015-Jul-01 13:32N 38°42' W 009°10'0 0.0
2015-Jul-01 12:31N 38°42' W 009°10'0 0.0
2015-Jul-01 11:31N 38°42' W 009°10'0 0.0
2015-Jul-01 10:29N 38°42' W 009°10'0 0.0
2015-Jul-01 09:33N 38°42' W 009°10'0 0.0
2015-Jul-01 08:33N 38°42' W 009°10'0 0.0
2015-Jul-01 07:23N 38°42' W 009°10'0 0.0
2015-Jul-01 06:30N 38°42' W 009°10'0 0.0
2015-Jul-01 05:31N 38°42' W 009°10'0 0.0
2015-Jul-01 04:29N 38°42' W 009°10'0 0.0
2015-Jul-01 03:32N 38°42' W 009°10'0 0.0
2015-Jul-01 02:32N 38°42' W 009°10'0 0.0
2015-Jul-01 01:33N 38°42' W 009°10'0 0.0
2015-Jul-01 00:33N 38°42' W 009°10'0 0.0
2015-Jun-30 23:30N 38°42' W 009°10'0 0.0
2015-Jun-30 22:32N 38°42' W 009°10'0 0.1
2015-Jun-30 21:29N 38°42' W 009°09'0 0.1
2015-Jun-30 20:33N 38°42' W 009°10'0 0.0
2015-Jun-30 19:33N 38°42' W 009°10'0 0.0
2015-Jun-30 18:32N 38°42' W 009°10'0 0.0
2015-Jun-30 17:32N 38°42' W 009°10'0 0.0
2015-Jun-30 16:33N 38°42' W 009°10'2 1.5
2015-Jun-30 15:32N 38°41' W 009°11'2 1.5
2015-Jun-30 14:31N 38°42' W 009°10'0 0.0
2015-Jun-30 13:30N 38°42' W 009°10'0 0.0
2015-Jun-30 12:33N 38°42' W 009°10'0 0.0
2015-Jun-30 11:33N 38°42' W 009°10'0 0.0
2015-Jun-30 10:33N 38°42' W 009°10'1 1.1
2015-Jun-30 09:33N 38°41' W 009°09'1 0.8
2015-Jun-30 08:34N 38°41' W 009°08'2 1.7
2015-Jun-30 07:33N 38°42' W 009°10'0 0.1
2015-Jun-30 06:33N 38°42' W 009°10'0 0.0
2015-Jun-30 05:33N 38°42' W 009°10'0 0.0
2015-Jun-30 04:33N 38°42' W 009°10'0 0.0
2015-Jun-30 03:33N 38°42' W 009°10'0 0.0
2015-Jun-30 02:33N 38°42' W 009°10'0 0.0
2015-Jun-30 01:33N 38°42' W 009°10'0 0.4
2015-Jun-30 00:32N 38°42' W 009°10'0 0.5
2015-Jun-29 23:33N 38°42' W 009°11'1 0.9
2015-Jun-29 22:32N 38°42' W 009°10'0 0.0
2015-Jun-29 21:33N 38°42' W 009°10'1 1.3
2015-Jun-29 20:32N 38°42' W 009°11'1 1.4
2015-Jun-29 19:31N 38°42' W 009°10'0 0.0
2015-Jun-29 18:33N 38°42' W 009°10'0 0.0
2015-Jun-29 17:32N 38°42' W 009°10'0 0.0
2015-Jun-29 16:33N 38°42' W 009°10'0 0.0
2015-Jun-29 15:31N 38°42' W 009°10'0 0.0
2015-Jun-29 14:30N 38°42' W 009°10'0 0.0
2015-Jun-29 13:33N 38°42' W 009°10'0 0.0
2015-Jun-29 12:33N 38°42' W 009°10'0 0.0
2015-Jun-29 11:33N 38°42' W 009°10'0 0.0
2015-Jun-29 10:33N 38°42' W 009°10'0 0.0
2015-Jun-29 09:33N 38°42' W 009°10'0 0.0
2015-Jun-29 08:33N 38°42' W 009°10'2 1.7
2015-Jun-29 07:33N 38°43' W 009°07'2 1.7
2015-Jun-29 06:32N 38°42' W 009°10'0 0.0
2015-Jun-29 05:32N 38°42' W 009°10'0 0.0
2015-Jun-29 04:32N 38°42' W 009°10'0 0.0
2015-Jun-29 03:33N 38°42' W 009°10'0 0.0
2015-Jun-29 02:33N 38°42' W 009°10'0 0.0
2015-Jun-29 01:33N 38°42' W 009°10'0 0.0
2015-Jun-29 00:33N 38°42' W 009°10'0 0.0
2015-Jun-28 23:33N 38°42' W 009°10'0 0.0
2015-Jun-28 22:33N 38°42' W 009°10'0 0.0
2015-Jun-28 21:33N 38°42' W 009°10'0 0.0
2015-Jun-28 20:33N 38°42' W 009°10'0 0.0
2015-Jun-28 19:32N 38°42' W 009°10'0 0.3
2015-Jun-28 18:33N 38°42' W 009°10'0 0.2
2015-Jun-28 17:33N 38°42' W 009°10'1 0.7
2015-Jun-28 16:33N 38°42' W 009°09'1 0.7
2015-Jun-28 15:33N 38°42' W 009°10'0 0.0
2015-Jun-28 14:33N 38°42' W 009°10'0 0.0
2015-Jun-28 13:33N 38°42' W 009°10'0 0.0
2015-Jun-28 12:33N 38°42' W 009°10'3 2.8
2015-Jun-28 11:33N 38°43' W 009°06'1 1.5
2015-Jun-28 10:33N 38°42' W 009°08'1 1.3
2015-Jun-28 09:25N 38°42' W 009°10'1 1.0
2015-Jun-28 08:33N 38°42' W 009°09'1 0.8
2015-Jun-28 07:31N 38°42' W 009°10'0 0.0
2015-Jun-28 06:33N 38°42' W 009°10'0 0.0
2015-Jun-28 05:31N 38°42' W 009°10'0 0.0
2015-Jun-28 04:32N 38°42' W 009°10'0 0.0
2015-Jun-28 03:31N 38°42' W 009°10'0 0.0
2015-Jun-28 02:30N 38°42' W 009°10'0 0.0
2015-Jun-28 01:28N 38°42' W 009°10'0 0.0
2015-Jun-28 00:33N 38°42' W 009°10'0 0.0
2015-Jun-27 23:31N 38°42' W 009°10'0 0.0
2015-Jun-27 22:32N 38°42' W 009°10'0 0.0
2015-Jun-27 21:31N 38°42' W 009°10'0 0.0
2015-Jun-27 20:31N 38°42' W 009°10'0 0.0
2015-Jun-27 19:33N 38°42' W 009°10'0 0.0
2015-Jun-27 18:33N 38°42' W 009°10'0 0.0
2015-Jun-27 17:33N 38°42' W 009°10'0 0.0
2015-Jun-27 16:33N 38°42' W 009°10'0 0.0
2015-Jun-27 15:33N 38°42' W 009°10'0 0.0
2015-Jun-27 14:31N 38°42' W 009°10'0 0.0
2015-Jun-27 13:33N 38°42' W 009°10'0 0.0
2015-Jun-27 12:32N 38°42' W 009°10'0 0.0
2015-Jun-27 11:33N 38°42' W 009°10'0 0.0
2015-Jun-27 10:32N 38°42' W 009°10'2 1.8
2015-Jun-27 09:33N 38°43' W 009°07'1 1.4
2015-Jun-27 08:33N 38°42' W 009°09'1 0.6
2015-Jun-27 07:33N 38°42' W 009°09'0 0.2
2015-Jun-27 06:27N 38°42' W 009°10'0 0.4
2015-Jun-27 05:33N 38°42' W 009°10'0 0.4
2015-Jun-27 04:33N 38°42' W 009°10'0 0.0
2015-Jun-27 03:33N 38°42' W 009°10'0 0.0
2015-Jun-27 02:33N 38°42' W 009°10'3 2.8
2015-Jun-27 01:33N 38°43' W 009°07'2 2.0
2015-Jun-27 00:33N 38°42' W 009°08'1 1.0
2015-Jun-26 23:33N 38°42' W 009°10'0 0.0
2015-Jun-26 22:33N 38°42' W 009°10'0 0.0
2015-Jun-26 21:33N 38°42' W 009°10'0 0.0
2015-Jun-26 20:33N 38°42' W 009°10'1 1.3
2015-Jun-26 19:33N 38°41' W 009°09'1 1.3
2015-Jun-26 18:31N 38°42' W 009°10'2 1.7
2015-Jun-26 17:33N 38°41' W 009°08'2 2.2
2015-Jun-26 16:33N 38°41' W 009°11'1 1.5
2015-Jun-26 15:33N 38°41' W 009°13'3 2.7
2015-Jun-26 14:33N 38°42' W 009°10'0 0.0
2015-Jun-26 13:32N 38°42' W 009°10'0 0.0
2015-Jun-26 12:33N 38°42' W 009°10'0 0.0
2015-Jun-26 11:33N 38°42' W 009°10'0 0.0
2015-Jun-26 10:33N 38°42' W 009°10'0 0.4
2015-Jun-26 09:33N 38°42' W 009°10'0 0.4
2015-Jun-26 08:33N 38°42' W 009°10'0 0.0
2015-Jun-26 07:33N 38°42' W 009°10'0 0.0
2015-Jun-26 06:32N 38°42' W 009°10'0 0.0
2015-Jun-26 05:33N 38°42' W 009°10'0 0.0
2015-Jun-26 04:33N 38°42' W 009°10'0 0.0
2015-Jun-26 03:33N 38°42' W 009°10'0 0.0
2015-Jun-26 02:33N 38°42' W 009°10'0 0.0
2015-Jun-26 01:33N 38°42' W 009°10'0 0.0
2015-Jun-26 00:33N 38°42' W 009°10'0 0.0
2015-Jun-25 23:33N 38°42' W 009°10'0 0.0
2015-Jun-25 22:33N 38°42' W 009°10'  

Dump ship's entire track history